Date,TemperatureHighF,TemperatureAvgF,TemperatureLowF,DewpointHighF,DewpointAvgF,DewpointLowF,HumidityHigh,HumidityAvg,HumidityLow,PressureMaxIn,PressureMinIn,WindSpeedMaxMPH,WindSpeedAvgMPH,GustSpeedMaxMPH,PrecipitationSumIn
2013-1-1,36,30,26,16,7,-2,50,38,25,30.34,30.19,7,2,9,0.00
2013-1-2,43,33,25,14,8,1,49,35,22,30.23,30.17,7,3,12,0.00
2013-1-3,39,34,30,12,5,-13,39,30,11,30.28,30.13,6,3,10,0.00
2013-1-4,43,40,36,13,-6,-31,31,16,4,30.33,30.21,4,1,4,0.00
2013-1-5,48,41,35,18,4,-20,34,22,7,30.27,30.13,4,1,6,0.00
2013-1-6,34,29,25,27,22,9,94,80,34,30.12,30.01,5,2,11,0.00
2013-1-7,37,30,22,26,20,10,94,71,35,30.22,29.98,9,3,16,0.00
2013-1-8,53,44,35,29,24,13,63,46,25,30.24,30.16,4,1,13,0.12
2013-1-9,52,47,38,31,25,20,61,44,28,30.20,29.90,6,2,8,0.00
2013-1-10,40,27,17,31,24,14,95,88,52,30.00,29.76,9,4,15,0.00
2013-1-11,25,19,15,17,14,12,89,82,64,30.24,30.00,8,3,15,0.00
2013-1-12,27,20,14,12,10,7,87,65,45,30.26,30.15,4,1,6,0.00
2013-1-13,29,22,16,10,6,-4,63,50,36,30.24,30.14,5,1,6,0.00
2013-1-14,25,19,12,7,-2,-9,53,38,28,30.45,30.19,6,3,15,0.00
2013-1-15,41,34,25,23,18,8,60,51,42,30.53,30.39,6,2,13,0.00
2013-1-16,45,41,37,22,18,5,51,39,20,30.40,30.24,8,2,13,0.06
2013-1-17,44,39,33,13,11,5,43,31,20,30.30,30.21,8,4,12,0.00
2013-1-18,50,44,40,18,9,-7,34,25,10,30.26,30.16,5,3,7,0.00
2013-1-19,49,43,37,14,5,-9,27,21,9,30.27,30.16,5,2,7,0.00
2013-1-20,46,43,38,12,2,-7,25,18,11,30.22,30.10,5,2,7,0.00
2013-1-21,50,44,39,12,3,-8,26,19,9,30.20,30.10,5,2,10,0.00
2013-1-22,59,51,44,13,0,-20,22,13,5,30.19,30.08,5,2,6,0.00
2013-1-23,56,49,39,33,28,14,80,44,23,30.10,30.01,7,2,10,0.00
2013-1-24,48,43,38,47,40,29,97,90,68,30.17,30.01,5,2,10,0.43
2013-1-25,46,43,41,44,41,39,97,94,78,30.17,29.94,6,1,6,0.81
2013-1-26,46,42,39,44,41,38,98,97,95,29.94,29.86,3,1,6,0.20
2013-1-27,40,33,23,39,32,22,97,97,94,29.94,29.86,5,2,10,0.08
2013-1-28,27,23,20,25,21,18,95,93,87,30.28,29.92,6,3,14,0.00
2013-1-29,47,33,22,30,24,16,87,70,50,30.35,30.25,7,3,11,0.17
2013-1-30,48,42,38,31,26,21,60,53,45,30.35,30.23,6,2,16,0.09
2013-1-31,50,44,40,31,27,19,60,52,35,30.25,30.14,4,1,7,0.00